Aeroporto :
LOGIN :

Iscrizione | Disclaimer

   EN    FR    IT 

 










Sommario :    VFR   VFR Marginale   IFR   IFR Intensivo   IFR Molto Intensivo
Visibilità : 
Base nubi : 
>= 8 km
>= 3000ft
5 / 8 km
1000 / 3000 ft
1500m / 5 km
500 / 1000 ft
800 / 1500m
200 / 500 ft
< 800m
< 200 ft
Simboli :   Temporali  Nebbia  Neve Forte  Precipitazioni Forti  Vento > 20 kt
SIGMETs :   Varie  Temporali  Ghiacco  Turbolenza  Onda orograficha  Ceneri Vulcaniche






- Altitudine del aeroporto : 796 ft
- Codice IATA : SYT


LFLN - Saint-Yan

ULTIMO METAR :
  • 250330Z AUTO 24010KT 200V270 CAVOK 11/05 Q1005

METARs OBSOLETI :
  • 250300Z AUTO 23009KT 190V270 CAVOK 11/05 Q1005
  • 250230Z AUTO 22006KT 180V250 CAVOK 11/05 Q1006
  • 250200Z AUTO 22004KT 190V280 9999 FEW041 BKN086 OVC110 12/05 Q1006
  • 250130Z AUTO 19005KT 130V230 9999 BKN041 BKN058 OVC130 12/06 Q1006
  • 250100Z AUTO 23003KT 170V270 9999 BKN048 BKN054 OVC098 12/07 Q1006

Previsioni scadute.



MetMap, La meteo Aeronautica in un colpo d'occhio ! - Copyright ORBIFLY Dicembre 2007 - Disclaimer

ORBIFLY MET'MAP TEAM :

Programmazione e sviluppo : Alexandra Zaïnal
Concezione : Baudouin d'Aumeries
Aiuto per la programmazione : Marc-Olivier Méhu
Supporto tecnico e logistico : Manuel Goepfert
Aiuto per la traduzione : Arnaldo La Scala

Contatto : metmap@orbifly.com




FONTI E CREDITI :

   NOAA